createdAt,value
2018-09-19T00:00:23.034Z,53.93
2018-09-19T00:00:54.626Z,53.93
2018-09-19T00:01:26.221Z,53.86
2018-09-19T00:01:57.865Z,53.91
2018-09-19T00:02:29.452Z,53.96
2018-09-19T00:03:01.055Z,53.93
2018-09-19T00:03:32.634Z,54.43
2018-09-19T00:04:04.228Z,54.09
2018-09-19T00:04:35.834Z,53.85
2018-09-19T00:05:07.424Z,53.98
2018-09-19T00:05:39.027Z,53.91
2018-09-19T00:06:10.623Z,53.76
2018-09-19T00:06:42.212Z,53.80
2018-09-19T00:07:13.836Z,53.91
2018-09-19T00:07:45.427Z,53.89
2018-09-19T00:08:17.011Z,54.12
2018-09-19T00:08:48.610Z,54.18
2018-09-19T00:09:20.201Z,54.06
2018-09-19T00:09:51.792Z,54.06
2018-09-19T00:10:23.396Z,53.78
2018-09-19T00:10:54.990Z,53.92
2018-09-19T00:11:26.592Z,54.00
2018-09-19T00:11:58.237Z,54.20
2018-09-19T00:12:29.860Z,54.57
2018-09-19T00:13:01.446Z,54.35
2018-09-19T00:13:33.052Z,54.29
2018-09-19T00:14:04.644Z,54.15
2018-09-19T00:14:36.237Z,54.10
2018-09-19T00:15:07.824Z,54.08
2018-09-19T00:15:39.402Z,54.08
2018-09-19T00:16:11.034Z,54.03
2018-09-19T00:16:42.614Z,54.05
2018-09-19T00:17:14.251Z,54.04
2018-09-19T00:17:45.854Z,53.98
2018-09-19T00:18:17.438Z,53.88
2018-09-19T00:18:49.043Z,53.90
2018-09-19T00:19:20.648Z,53.97
2018-09-19T00:19:52.290Z,53.92
2018-09-19T00:20:23.879Z,53.94
2018-09-19T00:20:55.454Z,53.95
2018-09-19T00:21:27.053Z,53.97
2018-09-19T00:21:58.663Z,53.99
2018-09-19T00:22:30.293Z,53.96
2018-09-19T00:23:01.901Z,54.03
2018-09-19T00:23:33.495Z,53.99
2018-09-19T00:24:05.072Z,54.01
2018-09-19T00:24:36.662Z,54.07
2018-09-19T00:25:08.267Z,54.09
2018-09-19T00:25:39.874Z,54.06
2018-09-19T00:26:11.474Z,54.04
2018-09-19T00:26:43.078Z,54.09
2018-09-19T00:27:14.738Z,54.17
2018-09-19T00:27:46.342Z,54.08
2018-09-19T00:28:17.938Z,54.03
2018-09-19T00:28:49.566Z,53.95
2018-09-19T00:29:21.153Z,54.04
2018-09-19T00:29:52.746Z,53.97
2018-09-19T00:30:24.346Z,53.97
2018-09-19T00:30:55.939Z,54.01
2018-09-19T00:31:27.534Z,54.01
2018-09-19T00:31:59.115Z,53.98
2018-09-19T00:32:30.734Z,53.98
2018-09-19T00:33:02.338Z,53.94
2018-09-19T00:33:33.946Z,53.89
2018-09-19T00:34:05.539Z,53.90
2018-09-19T00:34:37.143Z,53.82
2018-09-19T00:35:08.750Z,53.90
2018-09-19T03:35:38.628Z,53.57
2018-09-19T03:36:10.215Z,53.42
2018-09-19T03:36:41.814Z,53.40
2018-09-19T03:37:13.449Z,53.59
2018-09-19T03:37:45.045Z,53.57
2018-09-19T03:38:16.638Z,53.43
2018-09-19T03:38:48.239Z,53.49
2018-09-19T03:39:19.842Z,53.43
2018-09-19T03:39:51.445Z,53.37
2018-09-19T03:40:23.051Z,53.37
2018-09-19T03:40:54.690Z,53.71
2018-09-19T03:41:26.293Z,53.62
2018-09-19T03:41:57.904Z,53.60
2018-09-19T03:42:29.500Z,53.58
2018-09-19T03:43:01.102Z,53.67
2018-09-19T03:43:32.705Z,53.51
2018-09-19T03:44:04.310Z,53.45
2018-09-19T03:44:35.905Z,53.48
2018-09-19T03:45:07.510Z,53.34
2018-09-19T03:45:39.104Z,53.32
2018-09-19T03:46:10.742Z,53.44
2018-09-19T03:46:42.331Z,53.51
2018-09-19T03:47:13.934Z,53.39
2018-09-19T03:47:45.537Z,53.34
2018-09-19T03:48:17.138Z,53.39
2018-09-19T03:48:48.731Z,53.41
2018-09-19T03:49:20.319Z,53.51
2018-09-19T03:49:51.919Z,53.52
2018-09-19T03:50:23.519Z,53.46
2018-09-19T03:50:55.136Z,53.49
2018-09-19T03:51:26.739Z,53.58
2018-09-19T03:51:58.353Z,53.66
2018-09-19T03:52:29.943Z,53.69
2018-09-19T03:53:01.550Z,53.72
2018-09-19T03:53:33.158Z,53.71
2018-09-19T03:54:04.766Z,53.67
2018-09-19T03:54:36.373Z,53.59
2018-09-19T03:55:07.964Z,53.55
2018-09-19T03:55:39.606Z,53.58
2018-09-19T03:56:11.230Z,53.48
2018-09-19T03:56:42.833Z,53.55
2018-09-19T03:57:14.420Z,53.45
2018-09-19T03:57:45.994Z,53.48
2018-09-19T03:58:17.624Z,53.51
2018-09-19T03:58:49.220Z,53.52
2018-09-19T03:59:20.822Z,53.55
2018-09-19T03:59:52.432Z,53.52
2018-09-19T04:00:24.038Z,53.61
2018-09-19T04:00:55.646Z,53.66
2018-09-19T04:01:27.267Z,53.71
2018-09-19T04:01:58.878Z,53.66
2018-09-19T04:02:30.473Z,53.69
2018-09-19T04:03:02.054Z,53.57
2018-09-19T04:03:33.635Z,53.55
2018-09-19T04:04:05.236Z,53.62
2018-09-19T04:04:36.814Z,53.63
2018-09-19T04:05:08.418Z,53.64
2018-09-19T04:05:40.004Z,53.66
2018-09-19T04:06:11.637Z,53.73
2018-09-19T04:06:43.241Z,53.71
2018-09-19T04:07:14.847Z,53.65
2018-09-19T04:07:46.431Z,53.60
2018-09-19T04:08:18.032Z,53.65
2018-09-19T04:08:49.633Z,53.56
2018-09-19T04:09:21.225Z,53.53
2018-09-19T04:09:52.812Z,53.53
2018-09-19T04:10:24.414Z,53.47
2018-09-19T04:10:56.022Z,53.51
2018-09-19T04:11:27.643Z,53.56
2018-09-19T04:11:59.232Z,53.44
2018-09-19T04:12:30.814Z,53.58
2018-09-19T04:13:02.409Z,53.50
2018-09-19T04:13:34.012Z,53.48
2018-09-19T04:14:05.614Z,53.45
2018-09-19T04:14:37.215Z,53.43
2018-09-19T04:15:08.808Z,53.51
2018-09-19T04:15:40.397Z,53.51
2018-09-19T04:16:11.995Z,53.47
2018-09-19T04:16:43.613Z,53.48
2018-09-19T04:17:15.244Z,53.55
2018-09-19T04:17:46.877Z,53.64
2018-09-19T04:18:18.429Z,53.68
2018-09-19T04:18:50.033Z,53.68
2018-09-19T04:19:21.624Z,53.62
2018-09-19T04:19:53.220Z,53.74
2018-09-19T04:20:24.840Z,53.74
2018-09-19T04:20:56.419Z,53.79
2018-09-19T04:21:28.022Z,53.97
2018-09-19T04:21:59.669Z,54.00
2018-09-19T04:22:31.288Z,53.97
2018-09-19T04:23:02.878Z,54.00
2018-09-19T04:23:34.472Z,53.96
2018-09-19T04:24:06.069Z,54.00
2018-09-19T04:24:37.660Z,53.97
2018-09-19T04:25:09.270Z,53.99
2018-09-19T04:25:40.881Z,53.99
2018-09-19T04:26:12.475Z,54.03
2018-09-19T04:26:44.064Z,54.02
2018-09-19T04:27:15.685Z,53.98
2018-09-19T04:27:47.294Z,54.04
2018-09-19T04:28:18.893Z,54.04
2018-09-19T04:28:50.469Z,53.91
2018-09-19T04:29:22.074Z,53.87
2018-09-19T04:29:53.665Z,53.92
2018-09-19T04:30:25.261Z,53.90
2018-09-19T04:30:56.878Z,53.98
2018-09-19T04:31:28.474Z,54.04
2018-09-19T04:32:00.113Z,54.06
2018-09-19T04:32:31.719Z,54.02
2018-09-19T04:33:03.330Z,53.97
2018-09-19T04:33:34.933Z,53.98
2018-09-19T04:34:06.532Z,53.89
2018-09-19T04:34:38.139Z,53.88
2018-09-19T04:35:09.728Z,53.78
2018-09-19T04:35:41.361Z,53.81
2018-09-19T04:36:12.965Z,53.91
2018-09-19T04:36:44.577Z,53.81
2018-09-19T04:37:16.210Z,53.83
2018-09-19T04:37:47.806Z,53.82
2018-09-19T04:38:19.403Z,53.82
2018-09-19T04:38:51.004Z,53.85
2018-09-19T04:39:22.617Z,53.90
2018-09-19T04:39:54.223Z,53.99
2018-09-19T04:40:25.815Z,53.93
2018-09-19T04:40:57.418Z,53.91
2018-09-19T04:41:28.991Z,53.96
2018-09-19T04:42:00.598Z,53.96
2018-09-19T04:42:32.237Z,53.88
2018-09-19T04:43:03.828Z,53.80
2018-09-19T04:43:35.423Z,53.82
2018-09-19T04:44:07.017Z,53.77
2018-09-19T04:44:38.623Z,53.71
2018-09-19T04:45:10.235Z,53.68
2018-09-19T04:45:41.812Z,53.74
2018-09-19T04:46:13.408Z,53.72
2018-09-19T04:46:45.014Z,53.71
2018-09-19T04:47:16.612Z,53.76
2018-09-19T04:47:48.224Z,54.06
2018-09-19T04:48:19.820Z,54.15
2018-09-19T04:48:51.416Z,54.08
2018-09-19T04:49:22.997Z,53.99
2018-09-19T04:49:54.603Z,54.00
2018-09-19T04:50:26.197Z,54.05
2018-09-19T04:50:57.783Z,54.09
2018-09-19T04:51:29.438Z,54.05
2018-09-19T04:52:00.997Z,54.04
2018-09-19T04:52:32.717Z,53.96
2018-09-19T04:53:04.310Z,53.95
2018-09-19T04:53:35.913Z,53.92
2018-09-19T04:54:07.516Z,53.81
2018-09-19T04:54:39.108Z,53.90
2018-09-19T04:55:10.727Z,53.89
2018-09-19T04:55:42.323Z,53.89
2018-09-19T04:56:13.926Z,53.98
2018-09-19T04:56:45.534Z,54.00
2018-09-19T04:57:17.117Z,54.05
2018-09-19T04:57:48.747Z,54.05
2018-09-19T04:58:20.336Z,54.06
2018-09-19T04:58:51.949Z,54.20
2018-09-19T04:59:23.544Z,54.25
2018-09-19T04:59:55.150Z,54.24
2018-09-19T05:00:26.758Z,54.16
2018-09-19T05:00:58.338Z,54.25
2018-09-19T05:01:29.922Z,54.29
2018-09-19T05:02:01.512Z,54.26
2018-09-19T05:02:33.122Z,54.20
2018-09-19T05:03:04.749Z,54.28
2018-09-19T05:03:36.361Z,54.17
2018-09-19T05:04:07.959Z,54.10
2018-09-19T05:04:39.559Z,54.02
2018-09-19T05:05:11.151Z,54.06
2018-09-19T05:05:42.776Z,54.14
2018-09-19T05:06:14.380Z,54.17
2018-09-19T05:06:45.962Z,54.07
2018-09-19T05:07:17.634Z,54.16
2018-09-19T05:07:49.228Z,54.29
2018-09-19T05:08:20.834Z,54.27
2018-09-19T05:08:52.423Z,54.25
2018-09-19T05:09:24.034Z,54.15
2018-09-19T05:09:55.623Z,54.03
2018-09-19T05:10:27.217Z,54.05
2018-09-19T05:10:58.808Z,53.99
2018-09-19T05:11:30.486Z,53.90
2018-09-19T05:12:02.068Z,53.91
2018-09-19T05:12:33.665Z,53.95
2018-09-19T05:13:05.279Z,53.90
2018-09-19T05:13:36.883Z,53.89
2018-09-19T05:14:08.486Z,53.93
2018-09-19T05:14:40.094Z,53.85
2018-09-19T05:15:11.698Z,53.80
2018-09-19T05:15:43.303Z,53.74
2018-09-19T05:16:14.906Z,53.76
2018-09-19T05:16:46.490Z,53.84
2018-09-19T05:17:18.092Z,53.82
2018-09-19T05:17:49.700Z,53.88
2018-09-19T05:18:21.315Z,53.93
2018-09-19T05:18:52.913Z,53.95
2018-09-19T05:19:24.513Z,54.11
2018-09-19T05:19:56.125Z,54.10
2018-09-19T05:20:27.731Z,54.02
2018-09-19T05:20:59.328Z,53.95
2018-09-19T05:21:30.908Z,53.96
2018-09-19T05:22:02.514Z,53.95
2018-09-19T05:22:34.104Z,53.95
2018-09-19T05:23:05.729Z,54.03
2018-09-19T05:23:37.337Z,53.99
2018-09-19T05:24:08.946Z,53.81
2018-09-19T05:24:40.550Z,53.84
2018-09-19T05:25:12.155Z,53.86
2018-09-19T05:25:43.749Z,53.77
2018-09-19T05:26:15.336Z,53.74
2018-09-19T05:26:46.931Z,53.74
2018-09-19T05:27:18.538Z,53.81
2018-09-19T05:27:50.142Z,53.80
2018-09-19T05:28:21.819Z,53.88
2018-09-19T05:28:53.413Z,53.88
2018-09-19T05:29:24.994Z,53.85
2018-09-19T05:29:56.595Z,53.86
2018-09-19T05:30:28.201Z,53.82
2018-09-19T05:30:59.779Z,53.83
2018-09-19T05:31:31.419Z,53.84
2018-09-19T05:32:02.980Z,53.82
2018-09-19T05:32:34.567Z,53.85
2018-09-19T05:33:06.197Z,53.91
2018-09-19T05:33:37.794Z,53.89
2018-09-19T05:34:09.387Z,53.83
2018-09-19T05:34:41.011Z,53.82
2018-09-19T05:35:12.612Z,53.82
2018-09-19T05:35:44.216Z,53.89
2018-09-19T05:36:15.823Z,53.92
2018-09-19T05:36:47.442Z,53.91
2018-09-19T05:37:19.024Z,53.97
2018-09-19T05:37:50.612Z,54.00
2018-09-19T05:38:22.189Z,53.98
2018-09-19T05:38:53.781Z,53.93
2018-09-19T05:39:25.382Z,53.99
2018-09-19T05:39:56.966Z,54.05
2018-09-19T05:40:28.553Z,54.12
2018-09-19T05:41:00.144Z,54.14
2018-09-19T05:41:31.731Z,54.17
2018-09-19T05:42:03.338Z,54.22
2018-09-19T05:42:34.922Z,54.18
2018-09-19T05:43:06.508Z,54.09
2018-09-19T05:43:38.101Z,54.10
2018-09-19T05:44:09.696Z,54.17
2018-09-19T05:44:41.320Z,54.10
2018-09-19T05:45:12.924Z,54.11
2018-09-19T05:45:44.512Z,54.10
2018-09-19T05:46:16.147Z,54.17
2018-09-19T05:46:47.732Z,54.22
2018-09-19T05:47:19.323Z,54.35
2018-09-19T05:47:50.926Z,54.40
2018-09-19T05:48:22.558Z,54.48
2018-09-19T05:48:54.161Z,54.47
2018-09-19T05:49:25.765Z,54.53
2018-09-19T05:49:57.354Z,54.45
2018-09-19T05:50:28.957Z,54.38
2018-09-19T05:51:00.563Z,54.38
2018-09-19T05:51:32.179Z,54.42
2018-09-19T05:52:03.790Z,54.44
2018-09-19T05:52:35.370Z,54.48
2018-09-19T05:53:06.961Z,54.45
2018-09-19T05:53:38.589Z,54.53
2018-09-19T05:54:10.193Z,54.44
2018-09-19T05:54:41.871Z,54.48
2018-09-19T05:55:13.394Z,54.53
2018-09-19T05:55:44.984Z,54.45
2018-09-19T05:56:16.591Z,54.44
2018-09-19T05:56:48.174Z,54.43
2018-09-19T05:57:19.763Z,54.44
2018-09-19T05:57:51.366Z,54.59
2018-09-19T05:58:22.997Z,54.56
2018-09-19T05:58:54.598Z,54.47
2018-09-19T05:59:26.188Z,54.45
2018-09-19T05:59:57.781Z,54.58
2018-09-19T06:00:29.362Z,54.46
2018-09-19T06:01:00.976Z,54.49
2018-09-19T06:01:32.576Z,54.43
2018-09-19T06:02:04.182Z,54.35
2018-09-19T06:02:35.810Z,54.29
2018-09-19T06:03:07.407Z,54.28
2018-09-19T06:03:39.034Z,54.30
2018-09-19T06:04:10.619Z,54.27
2018-09-19T06:04:42.224Z,54.33
2018-09-19T06:05:13.883Z,54.49
2018-09-19T06:05:45.476Z,54.30
2018-09-19T06:06:17.064Z,54.25
2018-09-19T06:06:48.656Z,54.38
2018-09-19T06:07:20.244Z,54.41
2018-09-19T06:07:51.833Z,54.35
2018-09-19T06:08:23.453Z,54.30
2018-09-19T06:08:55.058Z,54.34
2018-09-19T06:09:26.653Z,54.46
2018-09-19T06:09:58.230Z,54.40
2018-09-19T06:10:29.839Z,54.38
2018-09-19T06:11:01.436Z,54.18
2018-09-19T06:11:33.010Z,54.20
2018-09-19T06:12:04.617Z,54.14
2018-09-19T06:12:36.221Z,54.18
2018-09-19T06:13:07.822Z,54.18
2018-09-19T06:13:39.446Z,54.23
2018-09-19T06:14:11.045Z,54.26
2018-09-19T06:14:42.652Z,54.27
2018-09-19T06:15:14.258Z,54.37
2018-09-19T06:15:45.866Z,54.61
2018-09-19T06:16:17.463Z,54.74
2018-09-19T06:16:49.044Z,54.70
2018-09-19T06:17:20.632Z,54.78
2018-09-19T06:17:52.247Z,54.62
2018-09-19T06:18:23.970Z,54.54
2018-09-19T06:18:55.596Z,54.50
2018-09-19T06:19:27.190Z,54.44
2018-09-19T06:19:58.781Z,54.52
2018-09-19T06:20:30.368Z,54.58
2018-09-19T06:21:01.950Z,54.44
2018-09-19T06:21:33.557Z,54.27
2018-09-19T06:22:05.168Z,54.08
2018-09-19T06:22:36.769Z,54.00
2018-09-19T06:23:08.356Z,54.16
2018-09-19T06:23:39.943Z,54.07
2018-09-19T06:24:11.565Z,54.08
2018-09-19T06:24:43.169Z,54.17
2018-09-19T06:25:14.830Z,54.15
2018-09-19T06:25:46.424Z,54.09
2018-09-19T06:26:18.030Z,53.98
2018-09-19T06:26:49.658Z,53.98
2018-09-19T06:27:21.247Z,53.90
2018-09-19T06:27:52.854Z,53.94
2018-09-19T06:28:24.448Z,54.05
2018-09-19T06:28:56.079Z,54.03
2018-09-19T06:29:27.690Z,54.13
2018-09-19T06:29:59.285Z,54.09
2018-09-19T06:30:30.876Z,54.64
2018-09-19T06:31:02.468Z,54.17
2018-09-19T06:31:34.063Z,54.09
2018-09-19T06:32:05.654Z,54.00
2018-09-19T06:32:37.244Z,53.89
2018-09-19T06:33:08.896Z,53.89
2018-09-19T06:33:40.455Z,53.99
2018-09-19T06:34:12.068Z,54.00
2018-09-19T06:34:43.655Z,54.58
2018-09-19T06:35:15.245Z,54.10
2018-09-19T06:35:46.833Z,53.91
2018-09-19T06:36:18.419Z,53.89
2018-09-19T06:36:50.053Z,53.95
2018-09-19T06:37:21.651Z,53.94
2018-09-19T06:37:53.235Z,54.49
2018-09-19T06:38:24.826Z,53.97
2018-09-19T06:38:56.445Z,54.07
2018-09-19T06:39:28.079Z,54.06
2018-09-19T06:39:59.730Z,54.16
2018-09-19T06:40:31.374Z,54.09
2018-09-19T06:41:03.008Z,54.08
2018-09-19T06:41:34.534Z,54.12
2018-09-19T06:42:06.115Z,54.27
2018-09-19T06:42:37.827Z,54.38
2018-09-19T06:43:09.421Z,54.54
2018-09-19T06:43:41.043Z,54.63
2018-09-19T06:44:12.670Z,54.71
2018-09-19T06:44:44.250Z,54.88
2018-09-19T06:45:15.834Z,55.06
2018-09-19T06:45:47.453Z,55.23
2018-09-19T06:46:19.041Z,55.15
2018-09-19T06:46:50.678Z,54.95
2018-09-19T06:47:22.274Z,54.72
2018-09-19T06:47:53.868Z,54.59
2018-09-19T06:48:25.461Z,54.48
2018-09-19T06:48:57.067Z,54.50
2018-09-19T06:49:28.688Z,54.47
2018-09-19T06:50:00.290Z,54.41
2018-09-19T06:50:31.887Z,54.34
2018-09-19T06:51:03.488Z,54.22
2018-09-19T06:51:35.123Z,54.09
2018-09-19T06:52:06.793Z,54.11
2018-09-19T06:52:38.331Z,54.29
2018-09-19T06:53:09.923Z,54.28
2018-09-19T06:53:41.512Z,54.45
2018-09-19T06:54:13.161Z,54.28
2018-09-19T06:54:44.791Z,54.19
2018-09-19T06:55:16.399Z,54.18
2018-09-19T06:55:47.994Z,54.21
2018-09-19T06:56:19.605Z,54.29
2018-09-19T06:56:51.201Z,54.24
2018-09-19T06:57:22.884Z,54.10
2018-09-19T06:57:54.466Z,54.06
2018-09-19T06:58:26.050Z,54.11
2018-09-19T06:58:57.643Z,54.09
2018-09-19T06:59:29.249Z,54.18
2018-09-19T07:00:00.854Z,54.10
2018-09-19T07:00:32.448Z,54.19
2018-09-19T07:01:04.052Z,54.34
2018-09-19T07:01:35.645Z,54.32
2018-09-19T07:02:07.252Z,54.17
2018-09-19T07:02:38.834Z,54.09
2018-09-19T07:03:10.438Z,54.21
2018-09-19T07:03:42.045Z,54.35
2018-09-19T07:04:13.654Z,54.36
2018-09-19T07:04:45.283Z,54.27
2018-09-19T07:05:16.883Z,54.34
2018-09-19T07:05:48.551Z,54.38
2018-09-19T07:06:20.110Z,54.41
2018-09-19T07:06:51.715Z,54.45
2018-09-19T07:07:23.329Z,54.43
2018-09-19T07:07:54.921Z,54.40
2018-09-19T07:08:26.524Z,54.35
2018-09-19T07:08:58.133Z,54.38
2018-09-19T07:09:29.750Z,54.34
2018-09-19T07:10:01.345Z,54.31
2018-09-19T07:10:32.972Z,54.25
2018-09-19T07:11:04.555Z,54.16
2018-09-19T07:11:36.165Z,54.26
2018-09-19T07:12:07.748Z,54.29
2018-09-19T07:12:39.344Z,54.29
2018-09-19T07:13:10.946Z,54.21
2018-09-19T07:13:42.550Z,54.39
2018-09-19T07:14:14.126Z,54.29
2018-09-19T07:14:45.726Z,54.40
2018-09-19T07:15:17.387Z,54.44
2018-09-19T07:15:48.982Z,54.27
2018-09-19T07:16:20.588Z,54.22
2018-09-19T07:16:52.184Z,54.13
2018-09-19T07:17:23.765Z,54.14
2018-09-19T07:17:55.346Z,54.06
2018-09-19T07:18:26.950Z,54.04
2018-09-19T07:18:58.624Z,54.14
2018-09-19T07:19:30.214Z,54.27
2018-09-19T07:20:01.825Z,54.29
2018-09-19T07:20:33.434Z,54.40
2018-09-19T07:21:05.037Z,54.42
2018-09-19T07:21:36.644Z,54.40
2018-09-19T07:22:08.236Z,54.43
2018-09-19T07:22:39.816Z,54.46
2018-09-19T07:23:11.418Z,54.35
2018-09-19T07:23:43.063Z,54.22
2018-09-19T07:24:14.641Z,54.18
2018-09-19T07:24:46.223Z,54.20
2018-09-19T07:25:17.886Z,54.18
2018-09-19T07:25:49.467Z,54.10
2018-09-19T07:26:21.078Z,54.08
2018-09-19T07:26:52.676Z,54.37
2018-09-19T07:27:24.284Z,54.12
2018-09-19T07:27:55.887Z,54.57
2018-09-19T07:28:27.476Z,54.56
2018-09-19T07:28:59.117Z,54.65
2018-09-19T07:29:30.708Z,54.78
2018-09-19T07:30:02.324Z,54.88
2018-09-19T07:30:33.933Z,54.95
2018-09-19T07:31:05.588Z,55.06
2018-09-19T07:31:37.140Z,55.11
2018-09-19T07:32:08.745Z,55.07
2018-09-19T07:32:40.338Z,55.05
2018-09-19T07:33:11.933Z,55.14
2018-09-19T07:33:43.548Z,55.11
2018-09-19T07:34:15.140Z,55.15
2018-09-19T07:34:46.744Z,55.25
2018-09-19T07:35:18.336Z,55.17
2018-09-19T07:35:49.945Z,55.18
2018-09-19T07:36:21.548Z,55.17
2018-09-19T07:36:53.136Z,55.25
2018-09-19T07:37:24.716Z,55.38
2018-09-19T07:37:56.322Z,55.39
2018-09-19T07:38:27.916Z,55.38
2018-09-19T07:38:59.514Z,55.43
2018-09-19T07:39:31.122Z,55.40
2018-09-19T07:40:02.808Z,55.36
2018-09-19T07:40:34.371Z,55.29
2018-09-19T07:41:05.970Z,55.41
2018-09-19T07:41:37.578Z,55.56
2018-09-19T07:42:09.193Z,55.65
2018-09-19T07:42:40.788Z,55.61
2018-09-19T07:43:12.385Z,55.57
2018-09-19T07:43:43.972Z,55.49
2018-09-19T07:44:15.568Z,55.46
2018-09-19T07:44:47.155Z,55.35
2018-09-19T07:45:18.773Z,55.29
2018-09-19T07:45:50.397Z,55.15
2018-09-19T07:46:22.021Z,55.07
2018-09-19T07:46:53.623Z,54.89
2018-09-19T07:47:25.205Z,54.76
2018-09-19T07:47:56.808Z,54.68
2018-09-19T07:48:28.400Z,54.60
2018-09-19T07:48:59.988Z,54.45
2018-09-19T07:49:31.570Z,54.43
2018-09-19T07:50:03.189Z,54.30
2018-09-19T07:50:34.784Z,54.37
2018-09-19T07:51:06.372Z,54.37
2018-09-19T07:51:37.960Z,54.30
2018-09-19T07:52:09.548Z,54.32
2018-09-19T07:52:41.139Z,54.32
2018-09-19T07:53:12.728Z,54.36
2018-09-19T07:53:44.323Z,54.34
2018-09-19T07:54:15.907Z,54.37
2018-09-19T07:54:47.593Z,54.50
2018-09-19T07:55:19.183Z,54.64
2018-09-19T07:55:50.785Z,54.67
2018-09-19T07:56:22.363Z,54.72
2018-09-19T07:56:53.966Z,54.96
2018-09-19T07:57:25.575Z,54.85
2018-09-19T07:57:57.164Z,54.88
2018-09-19T07:58:28.753Z,54.85
2018-09-19T07:59:00.371Z,55.04
2018-09-19T07:59:31.981Z,54.94
2018-09-19T08:00:03.614Z,54.92
2018-09-19T08:00:35.210Z,54.88
2018-09-19T08:01:06.920Z,54.82
2018-09-19T08:01:38.474Z,54.90
2018-09-19T08:02:10.078Z,54.99
2018-09-19T08:02:41.669Z,54.91
2018-09-19T08:03:13.276Z,54.94
2018-09-19T08:03:44.891Z,54.99
2018-09-19T08:04:16.502Z,55.03
2018-09-19T08:04:48.097Z,55.05
2018-09-19T08:05:19.736Z,55.13
2018-09-19T08:05:51.335Z,55.14
2018-09-19T08:06:22.928Z,55.02
2018-09-19T08:06:54.530Z,55.14
2018-09-19T08:07:26.133Z,55.12
2018-09-19T08:07:57.739Z,55.21
2018-09-19T08:08:29.336Z,55.15
2018-09-19T08:09:00.950Z,55.18
2018-09-19T08:09:32.556Z,55.25
2018-09-19T08:10:04.166Z,55.25
2018-09-19T08:10:35.780Z,55.26
2018-09-19T08:11:07.371Z,55.32
2018-09-19T08:11:38.954Z,55.24
2018-09-19T08:12:10.554Z,55.15
2018-09-19T08:12:42.162Z,55.20
2018-09-19T08:13:13.798Z,55.25
2018-09-19T08:13:45.402Z,55.20
2018-09-19T08:14:17.008Z,55.21
2018-09-19T08:14:48.616Z,55.25
2018-09-19T08:15:20.234Z,55.30
2018-09-19T08:15:51.855Z,55.32
2018-09-19T08:16:23.463Z,55.30
2018-09-19T08:16:55.119Z,55.44
2018-09-19T08:17:26.676Z,55.28
2018-09-19T08:17:58.267Z,55.25
2018-09-19T08:18:29.860Z,55.23
2018-09-19T08:19:01.463Z,55.37
2018-09-19T08:19:33.069Z,55.22
2018-09-19T08:20:04.671Z,55.24
2018-09-19T08:20:36.302Z,55.16
2018-09-19T08:21:07.914Z,55.12
2018-09-19T08:21:39.504Z,55.19
2018-09-19T08:22:11.096Z,55.23
2018-09-19T08:22:42.727Z,55.22
2018-09-19T08:23:14.304Z,55.25
2018-09-19T08:23:45.897Z,55.12
2018-09-19T08:24:17.491Z,55.19
2018-09-19T08:24:49.080Z,55.19
2018-09-19T08:25:20.701Z,55.11
2018-09-19T08:25:52.306Z,55.14
2018-09-19T08:26:23.910Z,55.17
2018-09-19T08:26:55.515Z,55.19
2018-09-19T08:27:27.115Z,55.16
2018-09-19T08:27:58.700Z,55.16
2018-09-19T08:28:30.279Z,55.09
2018-09-19T08:29:01.863Z,55.03
2018-09-19T08:29:33.438Z,54.96
2018-09-19T08:30:05.037Z,54.94
2018-09-19T08:30:36.657Z,54.91
2018-09-19T08:31:08.258Z,54.86
2018-09-19T08:31:39.874Z,54.86
2018-09-19T08:32:11.479Z,54.75
2018-09-19T08:32:43.080Z,54.57
2018-09-19T08:33:14.669Z,54.43
2018-09-19T08:33:46.255Z,54.40
2018-09-19T08:34:17.854Z,54.41
2018-09-19T08:34:49.457Z,54.34
2018-09-19T08:35:21.085Z,54.33
2018-09-19T08:35:52.699Z,54.31
2018-09-19T08:36:24.298Z,54.35
2018-09-19T08:36:55.892Z,54.32
2018-09-19T08:37:27.483Z,54.27
2018-09-19T08:37:59.066Z,54.42
2018-09-19T08:38:30.665Z,54.41
2018-09-19T08:39:02.256Z,54.42
2018-09-19T08:39:33.843Z,54.45
2018-09-19T08:40:05.452Z,54.42
2018-09-19T08:40:37.093Z,54.40
2018-09-19T08:41:08.688Z,54.35
2018-09-19T08:41:40.273Z,54.24
2018-09-19T08:42:11.879Z,54.15
2018-09-19T08:42:43.489Z,54.17
2018-09-19T08:43:15.094Z,54.16
2018-09-19T08:43:46.684Z,54.17
2018-09-19T08:44:18.275Z,54.19
2018-09-19T08:44:49.860Z,54.21
2018-09-19T08:45:21.462Z,54.10
2018-09-19T08:45:53.079Z,54.01
2018-09-19T08:46:24.689Z,53.98
2018-09-19T08:46:56.294Z,53.88
2018-09-19T08:47:27.896Z,53.83
2018-09-19T08:47:59.504Z,53.95
2018-09-19T08:48:31.094Z,53.86
2018-09-19T08:49:02.689Z,53.95
2018-09-19T08:49:34.295Z,54.01
2018-09-19T08:50:05.903Z,53.82
2018-09-19T08:50:37.566Z,54.05
2018-09-19T08:51:09.119Z,53.75
2018-09-19T08:51:40.709Z,53.89
2018-09-19T08:52:12.302Z,53.74
2018-09-19T08:52:43.890Z,53.91
2018-09-19T08:53:15.502Z,53.98
2018-09-19T08:53:47.131Z,53.86
2018-09-19T08:54:18.740Z,54.12
2018-09-19T08:54:50.350Z,54.28
2018-09-19T08:55:21.954Z,54.18
2018-09-19T08:55:53.602Z,54.25
2018-09-19T08:56:25.202Z,54.42
2018-09-19T08:56:56.851Z,54.06
2018-09-19T08:57:28.432Z,54.23
2018-09-19T08:58:00.062Z,54.01
2018-09-19T08:58:31.669Z,54.29
2018-09-19T08:59:03.269Z,54.19
2018-09-19T08:59:34.850Z,54.17
2018-09-19T09:00:06.430Z,54.12
2018-09-19T09:00:38.044Z,54.16
2018-09-19T09:01:09.645Z,54.05
2018-09-19T09:01:41.232Z,54.16
2018-09-19T09:02:12.836Z,54.13
2018-09-19T09:02:44.429Z,54.16
2018-09-19T09:03:16.014Z,54.26
2018-09-19T09:03:47.590Z,54.22
2018-09-19T09:04:19.175Z,54.09
2018-09-19T09:04:50.782Z,53.85
2018-09-19T09:05:22.399Z,54.31
2018-09-19T09:05:54.011Z,54.29
2018-09-19T09:06:25.600Z,54.27
2018-09-19T09:06:57.188Z,54.07
2018-09-19T09:07:28.782Z,54.18
2018-09-19T09:08:00.369Z,54.08
2018-09-19T09:08:31.972Z,53.86
2018-09-19T09:09:03.580Z,54.19
2018-09-19T09:09:35.176Z,54.16
2018-09-19T09:10:06.760Z,54.04
2018-09-19T09:10:38.349Z,53.92
2018-09-19T09:11:09.940Z,54.21
2018-09-19T09:11:41.521Z,54.19
2018-09-19T09:12:13.185Z,54.02
2018-09-19T09:12:44.835Z,54.16
2018-09-19T09:13:16.376Z,54.16
2018-09-19T09:13:47.983Z,54.19
2018-09-19T09:14:19.562Z,54.25
2018-09-19T09:14:51.173Z,54.11
2018-09-19T09:15:22.783Z,54.45
2018-09-19T09:15:54.413Z,54.20
2018-09-19T09:16:26.000Z,54.17
2018-09-19T09:16:57.606Z,54.37
2018-09-19T09:17:29.214Z,54.12
2018-09-19T09:18:00.818Z,54.09
2018-09-19T09:18:32.425Z,54.63
2018-09-19T09:19:04.002Z,54.07
2018-09-19T09:19:35.601Z,54.36
2018-09-19T09:20:07.206Z,54.39
2018-09-19T09:20:38.810Z,54.22
2018-09-19T09:21:10.403Z,54.32
2018-09-19T09:21:42.016Z,54.28
2018-09-19T09:22:13.599Z,54.27
2018-09-19T09:22:45.209Z,54.47
2018-09-19T09:23:16.816Z,54.54
2018-09-19T09:23:48.422Z,54.59
2018-09-19T09:24:20.012Z,54.47
2018-09-19T09:24:51.604Z,54.59
2018-09-19T09:25:23.217Z,54.53
2018-09-19T09:25:54.857Z,54.57
2018-09-19T09:26:26.453Z,54.59
2018-09-19T09:26:58.068Z,54.87
2018-09-19T09:27:29.655Z,54.79
2018-09-19T09:28:01.262Z,54.64
2018-09-19T09:28:32.865Z,54.68
2018-09-19T09:29:04.473Z,54.60
2018-09-19T09:29:36.082Z,54.58
2018-09-19T09:30:07.690Z,54.79
2018-09-19T09:30:39.271Z,54.73
2018-09-19T09:31:10.955Z,54.53
2018-09-19T09:31:42.529Z,54.54
2018-09-19T09:32:45.697Z,54.39
2018-09-19T09:33:17.294Z,54.52
2018-09-19T09:33:48.903Z,54.45
2018-09-19T09:34:20.562Z,54.44
2018-09-19T09:34:52.132Z,54.44
2018-09-19T09:35:23.739Z,54.46
2018-09-19T09:35:55.352Z,54.57
2018-09-19T09:36:26.974Z,54.51
2018-09-19T09:36:58.578Z,54.53
2018-09-19T09:37:30.191Z,54.36
2018-09-19T09:38:01.789Z,54.60
2018-09-19T09:38:33.398Z,54.62
2018-09-19T09:39:04.992Z,54.58
2018-09-19T09:39:36.586Z,54.51
2018-09-19T09:40:08.186Z,54.42
2018-09-19T09:40:39.878Z,54.59
2018-09-19T09:41:11.434Z,54.41
2018-09-19T09:41:43.040Z,54.62
2018-09-19T09:42:14.628Z,54.42
2018-09-19T09:42:46.230Z,54.45
2018-09-19T09:43:17.843Z,54.36
2018-09-19T09:43:49.439Z,54.16
2018-09-19T09:44:21.018Z,54.11
2018-09-19T09:44:52.628Z,54.00
2018-09-19T09:45:24.238Z,53.80
2018-09-19T09:45:55.856Z,53.67
2018-09-19T09:46:27.480Z,53.62
2018-09-19T09:46:59.097Z,53.46
2018-09-19T09:47:30.698Z,53.40